Ramona, OK (74061)

5:31 AM CDT on May 07, 2015 (GMT -0500)
KOKHOGSH1 | | Change Station
CLOSE
Current Station
Personal Weather Station
Location: Hogshooter, OK
Elevation: 790 ft
Nearby Weather Stations

Elev 790 ft 36.69 °N, 95.83 °W | Updated 1 minute ago

Overcast
Overcast
68.8 °F
Feels Like 68.8 °F
N
7.0
Wind Variable Wind from South
Gusts 8.0 mph

Today
High -- | Low -- °F
--% Chance of Precip.
Yesterday
High -- | Low -- °F
Precip. -- in
6:23 AM 8:16 PM
Waning Gibbous, 89% visible
Pressure 29.83 in
Visibility 10.0 miles
Clouds Few 2300 ft
Dew Point 64 °F
Humidity 85%
Rainfall 0.00 in
Snow Depth Not available.
UV 0 out of 12
Pollen .90 out of 12
Air Quality Not available.
Flu Activity Local Activity
METAR KBVO 070953Z AUTO 17007KT 10SM FEW023 20/18 A2985 RMK AO2 SLP099 T02000178

More Conditions Fewer Conditions

Pressure 29.83 in
Visibility 10.0 miles
Clouds Few 2300 ft
Dew Point 64 °F
Humidity 85%
Rainfall 0.00 in
Snow Depth Not available.
UV 0 out of 12
Pollen .90 out of 12
Air Quality Not available.
Flu Activity Local Activity
METAR KBVO 070953Z AUTO 17007KT 10SM FEW023 20/18 A2985 RMK AO2 SLP099 T02000178

More Conditions Fewer Conditions

Nowcast | as of 3:57 am CDT on May 7, 2015

At 4 am...scattered showers and thunderstorms were ongoing west of a line from Tahlequah to Antlers...moving northeast at 30 to 40 mph. Through 6 am...showers and thunderstorms will gradually increase in coverage along and south of intestate 40 across southeast Oklahoma. Additional scattered showers and thunderstorms will continue north of Interstate 40 and south of Interstate 44. Brief wind gusts of 40 to 50 mph and periods of heavy rainfall will be likely with the strongest storms.

×

10-Day Weather Forecast

Almanac

Astronomy

May. 07, 2015 Rise Set
Actual Time
Civil Twilight
Nautical Twilight
Astronomical Twilight
Moon
Length of Visible Light
Length of Day
Tomorrow will be .
, % of the Moon is Illuminated

Today's Extremes

State Highs State Lows

Community

WunderPhotos

Upload Photos

1,819,137 photos uploaded!

WunderBlogs® & News

Nearby

Air Quality

  Air Quality AQ Index Pollutant
Not available.

Snow Depth

Station Depth Elevation

Earthquake Activity

City Distance Mag. Time & Date
Minimum magnitude displayed is 2.5.

Coastal Water Temperatures

Place Temperature

Stations

Nearby Weather Stations

Station Location Temp. Windchill Dew Point Humidity Wind Precip. Elev Updated Type